sensor_id;sensor_type;location;lat;lon;timestamp;P1;durP1;ratioP1;P2;durP2;ratioP2
50124;SDS011;36023;48.670;6.184;2022-12-18T00:00:53;18.42;;;7.35;;
50124;SDS011;36023;48.670;6.184;2022-12-18T00:03:19;14.50;;;6.50;;
50124;SDS011;36023;48.670;6.184;2022-12-18T00:05:46;16.17;;;6.57;;
50124;SDS011;36023;48.670;6.184;2022-12-18T00:08:15;14.13;;;7.18;;
50124;SDS011;36023;48.670;6.184;2022-12-18T00:10:42;19.35;;;6.75;;
50124;SDS011;36023;48.670;6.184;2022-12-18T00:13:08;12.15;;;6.10;;
50124;SDS011;36023;48.670;6.184;2022-12-18T00:15:35;14.73;;;7.15;;
50124;SDS011;36023;48.670;6.184;2022-12-18T00:18:03;16.45;;;5.88;;
50124;SDS011;36023;48.670;6.184;2022-12-18T00:20:29;17.50;;;6.05;;
50124;SDS011;36023;48.670;6.184;2022-12-18T00:22:55;12.13;;;4.50;;
50124;SDS011;36023;48.670;6.184;2022-12-18T00:25:22;17.63;;;7.03;;
50124;SDS011;36023;48.670;6.184;2022-12-18T00:27:48;12.80;;;5.90;;
50124;SDS011;36023;48.670;6.184;2022-12-18T00:30:15;16.77;;;6.47;;
50124;SDS011;36023;48.670;6.184;2022-12-18T00:32:45;11.00;;;5.18;;
50124;SDS011;36023;48.670;6.184;2022-12-18T00:35:11;11.88;;;5.22;;
50124;SDS011;36023;48.670;6.184;2022-12-18T00:37:39;13.50;;;5.40;;
50124;SDS011;36023;48.670;6.184;2022-12-18T00:40:05;14.00;;;5.10;;
50124;SDS011;36023;48.670;6.184;2022-12-18T00:42:33;10.68;;;4.13;;
50124;SDS011;36023;48.670;6.184;2022-12-18T00:45:18;12.23;;;4.85;;
50124;SDS011;36023;48.670;6.184;2022-12-18T00:47:43;13.15;;;5.82;;
50124;SDS011;36023;48.670;6.184;2022-12-18T00:50:09;14.70;;;6.32;;
50124;SDS011;36023;48.670;6.184;2022-12-18T00:52:36;11.23;;;4.75;;
50124;SDS011;36023;48.670;6.184;2022-12-18T00:55:07;9.07;;;4.47;;
50124;SDS011;36023;48.670;6.184;2022-12-18T00:57:33;12.18;;;4.22;;
50124;SDS011;36023;48.670;6.184;2022-12-18T00:59:59;10.77;;;4.45;;
50124;SDS011;36023;48.670;6.184;2022-12-18T01:02:27;12.27;;;5.63;;
50124;SDS011;36023;48.670;6.184;2022-12-18T01:04:52;8.25;;;3.85;;
50124;SDS011;36023;48.670;6.184;2022-12-18T01:07:19;9.95;;;4.95;;
50124;SDS011;36023;48.670;6.184;2022-12-18T01:09:44;8.07;;;4.88;;
50124;SDS011;36023;48.670;6.184;2022-12-18T01:12:10;14.48;;;4.63;;
50124;SDS011;36023;48.670;6.184;2022-12-18T01:14:36;13.30;;;4.88;;
50124;SDS011;36023;48.670;6.184;2022-12-18T01:17:03;9.73;;;4.60;;
50124;SDS011;36023;48.670;6.184;2022-12-18T01:19:32;8.82;;;3.83;;
50124;SDS011;36023;48.670;6.184;2022-12-18T01:21:58;10.10;;;4.22;;
50124;SDS011;36023;48.670;6.184;2022-12-18T01:24:25;8.48;;;4.65;;
50124;SDS011;36023;48.670;6.184;2022-12-18T01:26:51;11.05;;;4.25;;
50124;SDS011;36023;48.670;6.184;2022-12-18T01:29:17;8.63;;;4.88;;
50124;SDS011;36023;48.670;6.184;2022-12-18T01:31:43;12.82;;;4.32;;
50124;SDS011;36023;48.670;6.184;2022-12-18T01:34:09;6.57;;;3.35;;
50124;SDS011;36023;48.670;6.184;2022-12-18T01:36:35;9.10;;;4.22;;
50124;SDS011;36023;48.670;6.184;2022-12-18T01:39:07;7.10;;;4.07;;
50124;SDS011;36023;48.670;6.184;2022-12-18T01:41:36;9.50;;;3.33;;
50124;SDS011;36023;48.670;6.184;2022-12-18T01:49:53;9.13;;;3.95;;
50124;SDS011;36023;48.670;6.184;2022-12-18T01:52:20;7.70;;;3.88;;
50124;SDS011;36023;48.670;6.184;2022-12-18T01:54:47;7.32;;;3.63;;
50124;SDS011;36023;48.670;6.184;2022-12-18T01:57:15;9.45;;;4.18;;
50124;SDS011;36023;48.670;6.184;2022-12-18T01:59:41;9.05;;;3.40;;
50124;SDS011;36023;48.670;6.184;2022-12-18T02:02:12;8.43;;;3.90;;
50124;SDS011;36023;48.670;6.184;2022-12-18T02:04:38;7.50;;;4.43;;
50124;SDS011;36023;48.670;6.184;2022-12-18T02:12:53;8.27;;;4.00;;
50124;SDS011;36023;48.670;6.184;2022-12-18T02:15:25;7.70;;;4.25;;
50124;SDS011;36023;48.670;6.184;2022-12-18T02:18:04;7.97;;;3.50;;
50124;SDS011;36023;48.670;6.184;2022-12-18T02:20:35;6.65;;;3.42;;
50124;SDS011;36023;48.670;6.184;2022-12-18T02:28:46;9.52;;;4.28;;
50124;SDS011;36023;48.670;6.184;2022-12-18T02:31:30;7.20;;;3.38;;
50124;SDS011;36023;48.670;6.184;2022-12-18T02:34:02;5.10;;;3.30;;
50124;SDS011;36023;48.670;6.184;2022-12-18T02:36:35;5.80;;;3.13;;
50124;SDS011;36023;48.670;6.184;2022-12-18T02:39:04;4.68;;;2.60;;
50124;SDS011;36023;48.670;6.184;2022-12-18T02:41:32;6.97;;;3.75;;
50124;SDS011;36023;48.670;6.184;2022-12-18T02:44:06;6.90;;;2.97;;
50124;SDS011;36023;48.670;6.184;2022-12-18T02:46:44;6.28;;;3.70;;
50124;SDS011;36023;48.670;6.184;2022-12-18T02:51:54;9.40;;;3.33;;
50124;SDS011;36023;48.670;6.184;2022-12-18T02:57:24;8.15;;;4.22;;
50124;SDS011;36023;48.670;6.184;2022-12-18T03:00:11;8.70;;;3.95;;
50124;SDS011;36023;48.670;6.184;2022-12-18T03:02:52;8.15;;;4.15;;
50124;SDS011;36023;48.670;6.184;2022-12-18T03:05:43;8.65;;;3.92;;
50124;SDS011;36023;48.670;6.184;2022-12-18T03:08:18;6.40;;;3.95;;
50124;SDS011;36023;48.670;6.184;2022-12-18T03:10:54;14.27;;;4.68;;
50124;SDS011;36023;48.670;6.184;2022-12-18T03:13:26;11.43;;;4.40;;
50124;SDS011;36023;48.670;6.184;2022-12-18T03:15:58;11.55;;;3.40;;
50124;SDS011;36023;48.670;6.184;2022-12-18T03:21:01;9.93;;;4.38;;
50124;SDS011;36023;48.670;6.184;2022-12-18T03:23:38;10.65;;;4.82;;
50124;SDS011;36023;48.670;6.184;2022-12-18T03:26:09;16.88;;;5.07;;
50124;SDS011;36023;48.670;6.184;2022-12-18T03:28:42;10.68;;;5.07;;
50124;SDS011;36023;48.670;6.184;2022-12-18T03:31:12;9.32;;;4.43;;
50124;SDS011;36023;48.670;6.184;2022-12-18T03:33:59;10.60;;;4.78;;
50124;SDS011;36023;48.670;6.184;2022-12-18T03:36:35;19.13;;;6.65;;
50124;SDS011;36023;48.670;6.184;2022-12-18T03:39:01;11.35;;;5.53;;
50124;SDS011;36023;48.670;6.184;2022-12-18T03:41:43;10.52;;;5.35;;
50124;SDS011;36023;48.670;6.184;2022-12-18T03:47:14;10.70;;;5.30;;
50124;SDS011;36023;48.670;6.184;2022-12-18T03:49:48;10.23;;;5.32;;
50124;SDS011;36023;48.670;6.184;2022-12-18T03:54:57;11.70;;;6.13;;
50124;SDS011;36023;48.670;6.184;2022-12-18T03:57:25;14.35;;;5.68;;
50124;SDS011;36023;48.670;6.184;2022-12-18T03:59:56;13.65;;;5.05;;
50124;SDS011;36023;48.670;6.184;2022-12-18T04:02:30;13.40;;;5.50;;
50124;SDS011;36023;48.670;6.184;2022-12-18T04:05:00;12.27;;;5.80;;
50124;SDS011;36023;48.670;6.184;2022-12-18T04:07:31;17.27;;;6.90;;
50124;SDS011;36023;48.670;6.184;2022-12-18T04:09:58;13.55;;;5.75;;
50124;SDS011;36023;48.670;6.184;2022-12-18T04:12:29;13.63;;;5.80;;
50124;SDS011;36023;48.670;6.184;2022-12-18T04:14:55;11.05;;;4.88;;
50124;SDS011;36023;48.670;6.184;2022-12-18T04:17:21;11.95;;;4.68;;
50124;SDS011;36023;48.670;6.184;2022-12-18T04:19:48;10.88;;;5.47;;
50124;SDS011;36023;48.670;6.184;2022-12-18T04:22:15;13.52;;;5.32;;
50124;SDS011;36023;48.670;6.184;2022-12-18T04:24:46;16.80;;;5.85;;
50124;SDS011;36023;48.670;6.184;2022-12-18T04:27:23;16.42;;;6.20;;
50124;SDS011;36023;48.670;6.184;2022-12-18T04:29:49;13.50;;;5.65;;
50124;SDS011;36023;48.670;6.184;2022-12-18T04:32:17;15.35;;;6.75;;
50124;SDS011;36023;48.670;6.184;2022-12-18T04:34:43;11.07;;;5.78;;
50124;SDS011;36023;48.670;6.184;2022-12-18T04:37:09;15.27;;;6.32;;
50124;SDS011;36023;48.670;6.184;2022-12-18T04:39:35;18.95;;;5.47;;
50124;SDS011;36023;48.670;6.184;2022-12-18T04:42:07;15.10;;;5.65;;
50124;SDS011;36023;48.670;6.184;2022-12-18T04:44:33;21.55;;;7.53;;
50124;SDS011;36023;48.670;6.184;2022-12-18T04:46:59;17.25;;;6.55;;
50124;SDS011;36023;48.670;6.184;2022-12-18T04:49:25;11.07;;;6.38;;
50124;SDS011;36023;48.670;6.184;2022-12-18T04:51:51;13.52;;;6.00;;
50124;SDS011;36023;48.670;6.184;2022-12-18T04:54:19;16.20;;;6.03;;
50124;SDS011;36023;48.670;6.184;2022-12-18T04:56:45;13.38;;;7.10;;
50124;SDS011;36023;48.670;6.184;2022-12-18T04:59:10;11.93;;;5.68;;
50124;SDS011;36023;48.670;6.184;2022-12-18T05:01:37;16.77;;;6.63;;
50124;SDS011;36023;48.670;6.184;2022-12-18T05:04:03;16.20;;;6.35;;
50124;SDS011;36023;48.670;6.184;2022-12-18T05:06:29;15.43;;;6.38;;
50124;SDS011;36023;48.670;6.184;2022-12-18T05:08:55;17.23;;;6.15;;
50124;SDS011;36023;48.670;6.184;2022-12-18T05:11:20;13.02;;;5.72;;
50124;SDS011;36023;48.670;6.184;2022-12-18T05:13:46;11.43;;;5.78;;
50124;SDS011;36023;48.670;6.184;2022-12-18T05:16:12;16.77;;;5.88;;
50124;SDS011;36023;48.670;6.184;2022-12-18T05:18:39;12.98;;;4.63;;
50124;SDS011;36023;48.670;6.184;2022-12-18T05:21:05;14.63;;;6.45;;
50124;SDS011;36023;48.670;6.184;2022-12-18T05:23:31;10.48;;;5.43;;
50124;SDS011;36023;48.670;6.184;2022-12-18T05:25:58;14.73;;;6.15;;
50124;SDS011;36023;48.670;6.184;2022-12-18T05:28:26;11.82;;;4.45;;
50124;SDS011;36023;48.670;6.184;2022-12-18T05:30:54;10.07;;;4.93;;
50124;SDS011;36023;48.670;6.184;2022-12-18T05:33:22;16.50;;;5.80;;
50124;SDS011;36023;48.670;6.184;2022-12-18T05:35:51;13.35;;;4.57;;
50124;SDS011;36023;48.670;6.184;2022-12-18T05:38:18;10.20;;;5.07;;
50124;SDS011;36023;48.670;6.184;2022-12-18T05:40:44;14.00;;;5.10;;
50124;SDS011;36023;48.670;6.184;2022-12-18T05:43:10;12.05;;;5.20;;
50124;SDS011;36023;48.670;6.184;2022-12-18T05:45:38;10.52;;;5.15;;
50124;SDS011;36023;48.670;6.184;2022-12-18T05:48:05;9.88;;;4.60;;
50124;SDS011;36023;48.670;6.184;2022-12-18T05:50:35;16.85;;;5.20;;
50124;SDS011;36023;48.670;6.184;2022-12-18T05:53:02;17.90;;;6.10;;
50124;SDS011;36023;48.670;6.184;2022-12-18T05:55:37;14.43;;;5.75;;
50124;SDS011;36023;48.670;6.184;2022-12-18T05:58:04;10.15;;;4.68;;
50124;SDS011;36023;48.670;6.184;2022-12-18T06:00:34;11.82;;;3.97;;
50124;SDS011;36023;48.670;6.184;2022-12-18T06:03:05;8.63;;;3.67;;
50124;SDS011;36023;48.670;6.184;2022-12-18T06:05:38;12.65;;;4.32;;
50124;SDS011;36023;48.670;6.184;2022-12-18T06:08:06;7.93;;;4.05;;
50124;SDS011;36023;48.670;6.184;2022-12-18T06:10:32;10.40;;;4.00;;
50124;SDS011;36023;48.670;6.184;2022-12-18T06:12:58;11.32;;;3.55;;
50124;SDS011;36023;48.670;6.184;2022-12-18T06:15:24;11.35;;;4.93;;
50124;SDS011;36023;48.670;6.184;2022-12-18T06:17:50;9.60;;;3.55;;
50124;SDS011;36023;48.670;6.184;2022-12-18T06:20:16;11.52;;;3.83;;
50124;SDS011;36023;48.670;6.184;2022-12-18T06:22:43;10.30;;;4.30;;
50124;SDS011;36023;48.670;6.184;2022-12-18T06:25:09;10.32;;;4.03;;
50124;SDS011;36023;48.670;6.184;2022-12-18T06:27:35;12.52;;;4.15;;
50124;SDS011;36023;48.670;6.184;2022-12-18T06:30:01;9.77;;;4.53;;
50124;SDS011;36023;48.670;6.184;2022-12-18T06:32:28;11.32;;;4.85;;
50124;SDS011;36023;48.670;6.184;2022-12-18T06:34:53;8.68;;;3.40;;
50124;SDS011;36023;48.670;6.184;2022-12-18T06:37:20;10.35;;;4.13;;
50124;SDS011;36023;48.670;6.184;2022-12-18T06:39:49;9.43;;;3.95;;
50124;SDS011;36023;48.670;6.184;2022-12-18T06:42:15;10.85;;;3.50;;
50124;SDS011;36023;48.670;6.184;2022-12-18T06:44:40;11.13;;;3.72;;
50124;SDS011;36023;48.670;6.184;2022-12-18T06:47:06;9.82;;;3.25;;
50124;SDS011;36023;48.670;6.184;2022-12-18T06:49:32;8.85;;;3.90;;
50124;SDS011;36023;48.670;6.184;2022-12-18T06:51:57;7.28;;;4.25;;
50124;SDS011;36023;48.670;6.184;2022-12-18T06:54:25;6.65;;;3.22;;
50124;SDS011;36023;48.670;6.184;2022-12-18T06:56:50;8.55;;;3.95;;
50124;SDS011;36023;48.670;6.184;2022-12-18T06:59:16;7.72;;;2.78;;
50124;SDS011;36023;48.670;6.184;2022-12-18T07:01:43;9.07;;;4.60;;
50124;SDS011;36023;48.670;6.184;2022-12-18T07:04:09;8.80;;;3.80;;
50124;SDS011;36023;48.670;6.184;2022-12-18T07:06:34;6.75;;;2.92;;
50124;SDS011;36023;48.670;6.184;2022-12-18T07:09:00;11.30;;;3.70;;
50124;SDS011;36023;48.670;6.184;2022-12-18T07:11:26;6.32;;;2.88;;
50124;SDS011;36023;48.670;6.184;2022-12-18T07:13:52;7.82;;;3.22;;
50124;SDS011;36023;48.670;6.184;2022-12-18T07:16:18;8.18;;;2.95;;
50124;SDS011;36023;48.670;6.184;2022-12-18T07:18:46;9.82;;;3.35;;
50124;SDS011;36023;48.670;6.184;2022-12-18T07:21:16;8.48;;;3.65;;
50124;SDS011;36023;48.670;6.184;2022-12-18T07:23:44;9.70;;;3.90;;
50124;SDS011;36023;48.670;6.184;2022-12-18T07:26:14;10.15;;;5.03;;
50124;SDS011;36023;48.670;6.184;2022-12-18T07:28:41;6.78;;;3.60;;
50124;SDS011;36023;48.670;6.184;2022-12-18T07:31:08;10.95;;;5.63;;
50124;SDS011;36023;48.670;6.184;2022-12-18T07:33:36;8.57;;;4.15;;
50124;SDS011;36023;48.670;6.184;2022-12-18T07:36:03;8.30;;;3.63;;
50124;SDS011;36023;48.670;6.184;2022-12-18T07:38:31;9.32;;;4.45;;
50124;SDS011;36023;48.670;6.184;2022-12-18T07:41:01;8.10;;;4.07;;
50124;SDS011;36023;48.670;6.184;2022-12-18T07:43:31;9.10;;;3.42;;
50124;SDS011;36023;48.670;6.184;2022-12-18T07:45:57;7.75;;;4.38;;
50124;SDS011;36023;48.670;6.184;2022-12-18T07:48:23;6.70;;;2.67;;
50124;SDS011;36023;48.670;6.184;2022-12-18T07:50:49;6.45;;;4.18;;
50124;SDS011;36023;48.670;6.184;2022-12-18T07:53:16;8.07;;;3.38;;
50124;SDS011;36023;48.670;6.184;2022-12-18T07:55:42;9.65;;;3.53;;
50124;SDS011;36023;48.670;6.184;2022-12-18T07:58:08;9.93;;;3.10;;
50124;SDS011;36023;48.670;6.184;2022-12-18T08:00:36;11.10;;;3.33;;
50124;SDS011;36023;48.670;6.184;2022-12-18T08:03:02;6.72;;;3.33;;
50124;SDS011;36023;48.670;6.184;2022-12-18T08:05:28;5.97;;;3.65;;
50124;SDS011;36023;48.670;6.184;2022-12-18T08:07:54;9.88;;;4.00;;
50124;SDS011;36023;48.670;6.184;2022-12-18T08:10:20;7.40;;;3.30;;
50124;SDS011;36023;48.670;6.184;2022-12-18T08:12:48;13.27;;;3.78;;
50124;SDS011;36023;48.670;6.184;2022-12-18T08:15:16;6.15;;;3.20;;
50124;SDS011;36023;48.670;6.184;2022-12-18T08:17:42;5.90;;;3.25;;
50124;SDS011;36023;48.670;6.184;2022-12-18T08:20:08;7.72;;;3.60;;
50124;SDS011;36023;48.670;6.184;2022-12-18T08:22:35;10.30;;;3.70;;
50124;SDS011;36023;48.670;6.184;2022-12-18T08:25:02;12.55;;;4.43;;
50124;SDS011;36023;48.670;6.184;2022-12-18T08:27:29;12.32;;;3.83;;
50124;SDS011;36023;48.670;6.184;2022-12-18T08:29:55;14.80;;;4.60;;
50124;SDS011;36023;48.670;6.184;2022-12-18T08:32:22;11.63;;;3.08;;
50124;SDS011;36023;48.670;6.184;2022-12-18T08:34:48;12.15;;;4.38;;
50124;SDS011;36023;48.670;6.184;2022-12-18T08:37:13;7.38;;;3.17;;
50124;SDS011;36023;48.670;6.184;2022-12-18T08:39:39;7.88;;;3.33;;
50124;SDS011;36023;48.670;6.184;2022-12-18T08:42:05;7.45;;;3.25;;
50124;SDS011;36023;48.670;6.184;2022-12-18T08:44:49;10.88;;;3.55;;
50124;SDS011;36023;48.670;6.184;2022-12-18T08:47:15;6.45;;;3.60;;
50124;SDS011;36023;48.670;6.184;2022-12-18T08:49:41;10.90;;;3.78;;
50124;SDS011;36023;48.670;6.184;2022-12-18T08:52:07;11.75;;;3.67;;
50124;SDS011;36023;48.670;6.184;2022-12-18T08:54:33;10.65;;;3.72;;
50124;SDS011;36023;48.670;6.184;2022-12-18T08:56:59;6.90;;;3.70;;
50124;SDS011;36023;48.670;6.184;2022-12-18T08:59:24;8.98;;;4.75;;
50124;SDS011;36023;48.670;6.184;2022-12-18T09:01:53;8.30;;;3.78;;
50124;SDS011;36023;48.670;6.184;2022-12-18T09:04:19;11.70;;;4.38;;
50124;SDS011;36023;48.670;6.184;2022-12-18T09:06:45;8.82;;;3.42;;
50124;SDS011;36023;48.670;6.184;2022-12-18T09:09:10;9.90;;;3.30;;
50124;SDS011;36023;48.670;6.184;2022-12-18T09:11:36;10.70;;;4.03;;
50124;SDS011;36023;48.670;6.184;2022-12-18T09:14:02;11.73;;;4.78;;
50124;SDS011;36023;48.670;6.184;2022-12-18T09:16:29;10.18;;;3.88;;
50124;SDS011;36023;48.670;6.184;2022-12-18T09:18:57;10.02;;;3.85;;
50124;SDS011;36023;48.670;6.184;2022-12-18T09:21:28;10.10;;;4.38;;
50124;SDS011;36023;48.670;6.184;2022-12-18T09:23:56;11.82;;;3.47;;
50124;SDS011;36023;48.670;6.184;2022-12-18T09:26:22;13.10;;;4.78;;
50124;SDS011;36023;48.670;6.184;2022-12-18T09:28:48;8.48;;;3.67;;
50124;SDS011;36023;48.670;6.184;2022-12-18T09:31:14;9.35;;;4.28;;
50124;SDS011;36023;48.670;6.184;2022-12-18T09:33:40;8.68;;;3.90;;
50124;SDS011;36023;48.670;6.184;2022-12-18T09:36:07;12.63;;;4.97;;
50124;SDS011;36023;48.670;6.184;2022-12-18T09:38:35;9.15;;;4.07;;
50124;SDS011;36023;48.670;6.184;2022-12-18T09:41:05;9.02;;;3.72;;
50124;SDS011;36023;48.670;6.184;2022-12-18T09:46:16;12.05;;;4.85;;
50124;SDS011;36023;48.670;6.184;2022-12-18T09:48:46;10.57;;;4.32;;
50124;SDS011;36023;48.670;6.184;2022-12-18T09:51:15;18.02;;;4.03;;
50124;SDS011;36023;48.670;6.184;2022-12-18T09:53:51;10.90;;;3.78;;
50124;SDS011;36023;48.670;6.184;2022-12-18T09:56:22;13.10;;;4.88;;
50124;SDS011;36023;48.670;6.184;2022-12-18T09:59:00;10.48;;;5.25;;
50124;SDS011;36023;48.670;6.184;2022-12-18T10:01:27;10.60;;;3.85;;
50124;SDS011;36023;48.670;6.184;2022-12-18T10:03:55;9.98;;;4.53;;
50124;SDS011;36023;48.670;6.184;2022-12-18T10:06:23;11.07;;;5.78;;
50124;SDS011;36023;48.670;6.184;2022-12-18T10:09:08;12.40;;;4.53;;
50124;SDS011;36023;48.670;6.184;2022-12-18T10:12:21;8.00;;;4.68;;
50124;SDS011;36023;48.670;6.184;2022-12-18T10:20:39;14.57;;;4.45;;
50124;SDS011;36023;48.670;6.184;2022-12-18T10:26:09;9.40;;;3.65;;
50124;SDS011;36023;48.670;6.184;2022-12-18T10:28:36;14.00;;;4.78;;
50124;SDS011;36023;48.670;6.184;2022-12-18T10:31:07;9.63;;;3.33;;
50124;SDS011;36023;48.670;6.184;2022-12-18T10:33:39;9.52;;;4.72;;
50124;SDS011;36023;48.670;6.184;2022-12-18T10:36:06;7.57;;;3.72;;
50124;SDS011;36023;48.670;6.184;2022-12-18T10:38:32;12.60;;;4.47;;
50124;SDS011;36023;48.670;6.184;2022-12-18T10:41:02;6.50;;;3.65;;
50124;SDS011;36023;48.670;6.184;2022-12-18T10:43:31;9.60;;;4.45;;
50124;SDS011;36023;48.670;6.184;2022-12-18T10:48:34;10.18;;;4.20;;
50124;SDS011;36023;48.670;6.184;2022-12-18T10:51:22;13.88;;;3.70;;
50124;SDS011;36023;48.670;6.184;2022-12-18T10:53:59;10.90;;;4.78;;
50124;SDS011;36023;48.670;6.184;2022-12-18T10:56:27;14.05;;;3.17;;
50124;SDS011;36023;48.670;6.184;2022-12-18T11:04:17;8.73;;;3.47;;
50124;SDS011;36023;48.670;6.184;2022-12-18T11:06:56;8.32;;;4.45;;
50124;SDS011;36023;48.670;6.184;2022-12-18T11:09:22;13.93;;;4.63;;
50124;SDS011;36023;48.670;6.184;2022-12-18T11:11:51;18.05;;;5.28;;
50124;SDS011;36023;48.670;6.184;2022-12-18T11:14:23;10.23;;;4.72;;
50124;SDS011;36023;48.670;6.184;2022-12-18T11:16:58;11.27;;;4.93;;
50124;SDS011;36023;48.670;6.184;2022-12-18T11:19:38;12.50;;;5.03;;
50124;SDS011;36023;48.670;6.184;2022-12-18T11:22:17;10.75;;;4.45;;
50124;SDS011;36023;48.670;6.184;2022-12-18T11:27:21;10.98;;;4.47;;
50124;SDS011;36023;48.670;6.184;2022-12-18T11:29:47;13.52;;;4.95;;
50124;SDS011;36023;48.670;6.184;2022-12-18T11:34:51;11.27;;;5.32;;
50124;SDS011;36023;48.670;6.184;2022-12-18T11:37:23;14.63;;;5.35;;
50124;SDS011;36023;48.670;6.184;2022-12-18T11:39:52;16.63;;;5.47;;
50124;SDS011;36023;48.670;6.184;2022-12-18T11:42:27;13.55;;;5.40;;
50124;SDS011;36023;48.670;6.184;2022-12-18T11:48:44;11.65;;;4.82;;
50124;SDS011;36023;48.670;6.184;2022-12-18T11:50:52;10.02;;;4.75;;
50124;SDS011;36023;48.670;6.184;2022-12-18T11:53:24;14.52;;;5.88;;
50124;SDS011;36023;48.670;6.184;2022-12-18T11:56:05;16.10;;;5.70;;
50124;SDS011;36023;48.670;6.184;2022-12-18T12:14:27;13.63;;;5.65;;
50124;SDS011;36023;48.670;6.184;2022-12-18T12:22:24;13.45;;;6.03;;
50124;SDS011;36023;48.670;6.184;2022-12-18T12:36:32;19.95;;;6.72;;
50124;SDS011;36023;48.670;6.184;2022-12-18T12:39:11;24.55;;;8.57;;
50124;SDS011;36023;48.670;6.184;2022-12-18T12:41:43;18.95;;;6.05;;
50124;SDS011;36023;48.670;6.184;2022-12-18T12:44:31;26.48;;;7.68;;
50124;SDS011;36023;48.670;6.184;2022-12-18T12:49:56;20.63;;;6.78;;
50124;SDS011;36023;48.670;6.184;2022-12-18T12:52:30;21.70;;;8.07;;
50124;SDS011;36023;48.670;6.184;2022-12-18T12:55:02;19.10;;;7.18;;
50124;SDS011;36023;48.670;6.184;2022-12-18T12:57:34;20.48;;;6.25;;
50124;SDS011;36023;48.670;6.184;2022-12-18T13:09:01;19.73;;;7.38;;
50124;SDS011;36023;48.670;6.184;2022-12-18T13:11:34;21.63;;;7.70;;
50124;SDS011;36023;48.670;6.184;2022-12-18T13:14:22;14.35;;;6.75;;
50124;SDS011;36023;48.670;6.184;2022-12-18T13:19:55;22.58;;;6.68;;
50124;SDS011;36023;48.670;6.184;2022-12-18T13:22:34;22.77;;;7.28;;
50124;SDS011;36023;48.670;6.184;2022-12-18T13:25:02;17.48;;;6.18;;
50124;SDS011;36023;48.670;6.184;2022-12-18T13:28:08;14.23;;;7.13;;
50124;SDS011;36023;48.670;6.184;2022-12-18T13:35:41;15.93;;;7.15;;
50124;SDS011;36023;48.670;6.184;2022-12-18T13:38:21;21.30;;;6.75;;
50124;SDS011;36023;48.670;6.184;2022-12-18T13:45:58;23.85;;;6.68;;
50124;SDS011;36023;48.670;6.184;2022-12-18T13:48:25;18.15;;;7.13;;
50124;SDS011;36023;48.670;6.184;2022-12-18T13:50:57;18.77;;;7.72;;
50124;SDS011;36023;48.670;6.184;2022-12-18T13:53:27;15.50;;;5.80;;
50124;SDS011;36023;48.670;6.184;2022-12-18T13:55:56;19.88;;;7.55;;
50124;SDS011;36023;48.670;6.184;2022-12-18T13:58:22;20.05;;;6.90;;
50124;SDS011;36023;48.670;6.184;2022-12-18T14:00:48;15.45;;;6.90;;
50124;SDS011;36023;48.670;6.184;2022-12-18T14:03:21;23.15;;;7.40;;
50124;SDS011;36023;48.670;6.184;2022-12-18T14:05:55;21.40;;;6.45;;
50124;SDS011;36023;48.670;6.184;2022-12-18T14:08:25;19.42;;;7.47;;
50124;SDS011;36023;48.670;6.184;2022-12-18T14:10:57;23.60;;;8.13;;
50124;SDS011;36023;48.670;6.184;2022-12-18T14:13:24;16.25;;;6.93;;
50124;SDS011;36023;48.670;6.184;2022-12-18T14:15:54;22.17;;;7.38;;
50124;SDS011;36023;48.670;6.184;2022-12-18T14:21:29;20.40;;;7.13;;
50124;SDS011;36023;48.670;6.184;2022-12-18T14:26:32;19.60;;;6.45;;
50124;SDS011;36023;48.670;6.184;2022-12-18T14:28:59;17.27;;;5.57;;
50124;SDS011;36023;48.670;6.184;2022-12-18T14:31:39;16.83;;;5.88;;
50124;SDS011;36023;48.670;6.184;2022-12-18T14:34:08;16.27;;;6.55;;
50124;SDS011;36023;48.670;6.184;2022-12-18T14:36:41;19.58;;;5.60;;
50124;SDS011;36023;48.670;6.184;2022-12-18T14:39:18;16.92;;;7.03;;
50124;SDS011;36023;48.670;6.184;2022-12-18T14:41:44;14.73;;;5.57;;
50124;SDS011;36023;48.670;6.184;2022-12-18T14:44:11;12.65;;;4.72;;
50124;SDS011;36023;48.670;6.184;2022-12-18T14:46:39;12.88;;;4.90;;
50124;SDS011;36023;48.670;6.184;2022-12-18T14:52:03;12.40;;;4.82;;
50124;SDS011;36023;48.670;6.184;2022-12-18T14:54:33;18.70;;;6.28;;
50124;SDS011;36023;48.670;6.184;2022-12-18T14:57:03;15.80;;;5.60;;
50124;SDS011;36023;48.670;6.184;2022-12-18T14:59:29;14.80;;;4.57;;
50124;SDS011;36023;48.670;6.184;2022-12-18T15:04:40;16.50;;;5.30;;
50124;SDS011;36023;48.670;6.184;2022-12-18T15:10:00;11.73;;;4.47;;
50124;SDS011;36023;48.670;6.184;2022-12-18T15:14:59;12.38;;;4.25;;
50124;SDS011;36023;48.670;6.184;2022-12-18T15:17:25;8.90;;;4.20;;
50124;SDS011;36023;48.670;6.184;2022-12-18T15:19:53;9.90;;;4.70;;
50124;SDS011;36023;48.670;6.184;2022-12-18T15:24:59;13.60;;;4.32;;
50124;SDS011;36023;48.670;6.184;2022-12-18T15:30:00;10.43;;;5.32;;
50124;SDS011;36023;48.670;6.184;2022-12-18T15:32:27;13.05;;;4.45;;
50124;SDS011;36023;48.670;6.184;2022-12-18T15:37:42;8.50;;;4.85;;
50124;SDS011;36023;48.670;6.184;2022-12-18T15:40:22;11.27;;;4.60;;
50124;SDS011;36023;48.670;6.184;2022-12-18T15:42:51;11.85;;;5.28;;
50124;SDS011;36023;48.670;6.184;2022-12-18T15:45:38;9.98;;;3.55;;
50124;SDS011;36023;48.670;6.184;2022-12-18T15:48:39;8.77;;;4.00;;
50124;SDS011;36023;48.670;6.184;2022-12-18T15:50:57;13.30;;;4.13;;
50124;SDS011;36023;48.670;6.184;2022-12-18T15:53:27;14.63;;;4.60;;
50124;SDS011;36023;48.670;6.184;2022-12-18T15:55:55;7.05;;;3.60;;
50124;SDS011;36023;48.670;6.184;2022-12-18T15:58:40;8.85;;;3.72;;
50124;SDS011;36023;48.670;6.184;2022-12-18T16:01:06;11.57;;;4.20;;
50124;SDS011;36023;48.670;6.184;2022-12-18T16:03:34;8.07;;;3.33;;
50124;SDS011;36023;48.670;6.184;2022-12-18T16:05:59;7.22;;;3.70;;
50124;SDS011;36023;48.670;6.184;2022-12-18T16:08:28;11.18;;;3.95;;
50124;SDS011;36023;48.670;6.184;2022-12-18T16:10:55;11.25;;;4.25;;
50124;SDS011;36023;48.670;6.184;2022-12-18T16:13:22;9.45;;;4.28;;
50124;SDS011;36023;48.670;6.184;2022-12-18T16:15:49;10.82;;;5.07;;
50124;SDS011;36023;48.670;6.184;2022-12-18T16:18:18;9.02;;;4.15;;
50124;SDS011;36023;48.670;6.184;2022-12-18T16:20:43;8.18;;;3.58;;
50124;SDS011;36023;48.670;6.184;2022-12-18T16:23:09;9.98;;;3.67;;
50124;SDS011;36023;48.670;6.184;2022-12-18T16:25:35;8.95;;;3.58;;
50124;SDS011;36023;48.670;6.184;2022-12-18T16:28:01;9.00;;;3.80;;
50124;SDS011;36023;48.670;6.184;2022-12-18T16:30:28;6.60;;;3.40;;
50124;SDS011;36023;48.670;6.184;2022-12-18T16:32:56;6.97;;;3.55;;
50124;SDS011;36023;48.670;6.184;2022-12-18T16:35:23;7.57;;;4.10;;
50124;SDS011;36023;48.670;6.184;2022-12-18T16:37:49;8.90;;;3.97;;
50124;SDS011;36023;48.670;6.184;2022-12-18T16:40:16;8.63;;;4.03;;
50124;SDS011;36023;48.670;6.184;2022-12-18T16:42:42;9.48;;;4.47;;
50124;SDS011;36023;48.670;6.184;2022-12-18T16:45:10;7.35;;;3.47;;
50124;SDS011;36023;48.670;6.184;2022-12-18T16:47:38;6.20;;;3.33;;
50124;SDS011;36023;48.670;6.184;2022-12-18T16:50:04;3.35;;;2.05;;
50124;SDS011;36023;48.670;6.184;2022-12-18T16:52:30;6.25;;;2.95;;
50124;SDS011;36023;48.670;6.184;2022-12-18T16:54:56;8.32;;;3.75;;
50124;SDS011;36023;48.670;6.184;2022-12-18T16:57:22;9.18;;;3.50;;
50124;SDS011;36023;48.670;6.184;2022-12-18T16:59:48;6.32;;;2.85;;
50124;SDS011;36023;48.670;6.184;2022-12-18T17:02:19;5.75;;;3.13;;
50124;SDS011;36023;48.670;6.184;2022-12-18T17:04:47;7.18;;;3.17;;
50124;SDS011;36023;48.670;6.184;2022-12-18T17:07:13;9.38;;;3.67;;
50124;SDS011;36023;48.670;6.184;2022-12-18T17:09:39;7.90;;;2.70;;
50124;SDS011;36023;48.670;6.184;2022-12-18T17:12:06;7.10;;;3.20;;
50124;SDS011;36023;48.670;6.184;2022-12-18T17:14:32;8.10;;;3.22;;